createdAt,value
2022-12-28T00:59:26.652Z,2.33
2022-12-28T04:07:25.631Z,2.60
2022-12-28T04:21:22.320Z,2.88
2022-12-28T04:38:26.247Z,2.72
2022-12-28T05:24:20.432Z,2.85
2022-12-28T06:19:58.445Z,3.37
2022-12-28T06:24:00.177Z,3.35
2022-12-28T06:38:40.606Z,3.64
2022-12-28T06:42:08.038Z,3.53
2022-12-28T06:45:59.641Z,3.57
2022-12-28T07:06:59.604Z,3.88
2022-12-28T07:09:48.003Z,3.77
2022-12-28T07:12:36.686Z,3.80
2022-12-28T07:15:35.015Z,3.97
2022-12-28T07:18:29.643Z,3.90
2022-12-28T07:21:44.447Z,3.98
2022-12-28T07:24:35.983Z,3.95
2022-12-28T07:27:32.507Z,4.03
2022-12-28T07:30:26.294Z,3.93
2022-12-28T07:33:14.806Z,3.96
2022-12-28T07:36:04.868Z,4.11
2022-12-28T07:39:12.399Z,4.19
2022-12-28T07:42:06.944Z,4.17
2022-12-28T07:45:12.605Z,4.31
2022-12-28T07:48:12.211Z,4.33
2022-12-28T07:51:38.698Z,4.45
2022-12-28T07:54:26.895Z,4.50
2022-12-28T07:57:25.543Z,4.61
2022-12-28T08:00:21.738Z,4.49
2022-12-28T08:03:27.084Z,4.69
2022-12-28T08:41:37.405Z,4.99
2022-12-28T08:49:46.324Z,5.19
2022-12-28T08:53:45.554Z,5.34
2022-12-28T08:57:28.324Z,5.33
2022-12-28T09:00:31.457Z,5.40
2022-12-28T09:07:01.782Z,5.45
2022-12-28T09:09:50.148Z,5.45
2022-12-28T09:12:57.586Z,5.41
2022-12-28T09:20:29.253Z,5.48
2022-12-28T09:45:06.473Z,6.60
2022-12-28T09:48:16.326Z,6.38
2022-12-28T09:51:30.731Z,6.18
2022-12-28T09:54:23.453Z,6.21
2022-12-28T09:57:24.884Z,6.25
2022-12-28T10:00:23.463Z,6.43
2022-12-28T10:03:42.650Z,6.57
2022-12-28T10:06:38.180Z,6.65
2022-12-28T10:09:36.981Z,6.57
2022-12-28T10:12:29.710Z,6.78
2022-12-28T10:15:28.010Z,6.78
2022-12-28T10:18:58.951Z,6.82
2022-12-28T10:21:59.461Z,6.93
2022-12-28T10:24:51.102Z,6.93
2022-12-28T10:27:45.370Z,7.24
2022-12-28T10:30:33.983Z,7.19
2022-12-28T10:33:30.334Z,7.27
2022-12-28T10:36:24.649Z,7.24
2022-12-28T10:39:31.859Z,7.21
2022-12-28T10:42:42.524Z,7.34
2022-12-28T10:45:59.262Z,7.34
2022-12-28T10:49:05.146Z,7.55
2022-12-28T10:52:21.914Z,7.38
2022-12-28T10:55:35.687Z,7.16
2022-12-28T10:58:30.841Z,7.14
2022-12-28T11:01:30.683Z,7.14
2022-12-28T11:04:26.581Z,7.26
2022-12-28T11:08:24.445Z,7.33
2022-12-28T11:10:58.463Z,7.29
2022-12-28T11:14:04.826Z,7.20
2022-12-28T11:17:00.412Z,7.28
2022-12-28T11:24:08.672Z,7.39
2022-12-28T11:26:59.380Z,7.52
2022-12-28T11:30:06.543Z,7.74
2022-12-28T11:33:01.174Z,7.68
2022-12-28T11:35:57.506Z,7.53
2022-12-28T11:38:56.032Z,7.32
2022-12-28T11:42:27.708Z,7.23
2022-12-28T11:45:13.433Z,7.04
2022-12-28T11:48:45.283Z,7.21
2022-12-28T11:51:38.647Z,7.25
2022-12-28T11:54:44.483Z,7.19
2022-12-28T11:57:45.548Z,7.41
2022-12-28T12:00:45.722Z,7.63
2022-12-28T12:03:59.096Z,7.88
2022-12-28T12:06:51.480Z,8.18
2022-12-28T12:09:46.375Z,8.23
2022-12-28T12:12:50.802Z,8.10
2022-12-28T12:15:44.887Z,7.96
2022-12-28T12:18:55.357Z,7.88
2022-12-28T12:21:47.386Z,7.92
2022-12-28T12:24:50.487Z,7.90
2022-12-28T12:28:27.833Z,8.12
2022-12-28T12:31:46.284Z,8.05
2022-12-28T12:35:02.528Z,8.11
2022-12-28T12:37:56.407Z,8.09
2022-12-28T12:41:36.718Z,8.23
2022-12-28T12:44:47.564Z,8.16
2022-12-28T12:48:12.919Z,8.01
2022-12-28T12:52:03.640Z,7.79
2022-12-28T12:55:48.811Z,7.77
2022-12-28T12:58:52.072Z,7.68
2022-12-28T13:02:28.672Z,7.50
2022-12-28T13:05:29.644Z,7.38
2022-12-28T13:08:41.811Z,7.34
2022-12-28T13:11:37.569Z,7.28
2022-12-28T13:14:33.290Z,7.27
2022-12-28T13:17:30.515Z,7.23
2022-12-28T13:20:26.051Z,7.36
2022-12-28T13:23:45.646Z,7.42
2022-12-28T13:26:34.700Z,7.40
2022-12-28T13:29:33.797Z,7.43
2022-12-28T13:32:45.216Z,7.52
2022-12-28T13:35:34.889Z,7.68
2022-12-28T13:38:43.051Z,7.72
2022-12-28T13:41:36.562Z,7.84
2022-12-28T13:44:57.486Z,7.89
2022-12-28T13:48:18.770Z,7.95
2022-12-28T13:51:21.204Z,7.91
2022-12-28T14:00:54.417Z,7.96
2022-12-28T14:03:46.286Z,8.01
2022-12-28T14:06:41.293Z,7.98
2022-12-28T14:09:30.566Z,7.94
2022-12-28T14:12:19.824Z,7.84
2022-12-28T14:15:09.794Z,7.82
2022-12-28T14:18:06.690Z,7.77
2022-12-28T14:20:57.405Z,7.74
2022-12-28T14:24:04.910Z,7.77
2022-12-28T14:27:02.958Z,7.75
2022-12-28T14:29:51.367Z,7.73
2022-12-28T14:32:46.912Z,7.76
2022-12-28T14:35:37.688Z,7.71
2022-12-28T14:42:38.927Z,7.81
2022-12-28T14:46:13.067Z,7.79
2022-12-28T14:49:54.730Z,7.75
2022-12-28T14:53:01.817Z,7.76
2022-12-28T14:56:20.968Z,7.76
2022-12-28T14:59:59.786Z,7.76
2022-12-28T15:02:53.841Z,7.76
2022-12-28T15:11:46.975Z,7.75
2022-12-28T15:14:57.048Z,7.86
2022-12-28T15:18:17.642Z,7.83
2022-12-28T15:25:24.594Z,7.62
2022-12-28T15:28:25.620Z,7.63
2022-12-28T15:31:23.731Z,7.69
2022-12-28T15:34:12.137Z,7.74
2022-12-28T15:37:00.862Z,7.78
2022-12-28T15:39:54.425Z,7.79
2022-12-28T15:42:46.818Z,7.84
2022-12-28T15:45:39.231Z,7.78
2022-12-28T15:50:18.808Z,7.90
2022-12-28T16:04:28.208Z,7.89
2022-12-28T16:07:29.303Z,7.91
2022-12-28T16:10:32.594Z,7.92
2022-12-28T16:13:28.761Z,7.80
2022-12-28T16:16:17.930Z,7.83
2022-12-28T16:19:20.732Z,7.86
2022-12-28T16:22:09.271Z,7.82
2022-12-28T16:25:24.115Z,7.85
2022-12-28T16:28:26.923Z,7.79
2022-12-28T16:31:32.873Z,7.84
2022-12-28T16:34:21.635Z,7.89
2022-12-28T16:37:16.662Z,7.87
2022-12-28T16:40:07.591Z,7.90
2022-12-28T16:43:03.356Z,7.88
2022-12-28T16:46:00.760Z,7.87
2022-12-28T16:48:57.669Z,7.91
2022-12-28T16:51:55.973Z,7.90
2022-12-28T16:54:51.897Z,7.89
2022-12-28T16:58:06.735Z,7.88
2022-12-28T17:01:44.972Z,7.86
2022-12-28T17:04:41.385Z,7.86
2022-12-28T17:08:07.593Z,7.86
2022-12-28T17:11:01.842Z,7.83
2022-12-28T17:17:16.868Z,7.79
2022-12-28T17:23:57.803Z,7.72
2022-12-28T17:26:54.295Z,7.61
2022-12-28T17:35:42.273Z,7.68
2022-12-28T17:38:52.463Z,7.56
2022-12-28T17:54:11.128Z,7.62
2022-12-28T17:57:36.859Z,7.62
2022-12-28T18:00:32.264Z,7.48
2022-12-28T18:06:43.283Z,7.45
2022-12-28T18:13:02.467Z,7.43
2022-12-28T18:16:29.022Z,7.43
2022-12-28T18:20:11.851Z,7.46
2022-12-28T18:23:00.105Z,7.52
2022-12-28T18:26:11.420Z,7.61
2022-12-28T18:29:03.115Z,7.54
2022-12-28T18:32:19.799Z,7.57
2022-12-28T18:35:09.522Z,7.58
2022-12-28T18:38:03.059Z,7.52
2022-12-28T18:40:56.577Z,7.61
2022-12-28T18:43:47.433Z,7.58
2022-12-28T18:46:35.970Z,7.51
2022-12-28T18:49:24.854Z,7.51
2022-12-28T18:52:12.980Z,7.55
2022-12-28T18:55:01.552Z,7.63
2022-12-28T18:57:49.692Z,7.65
2022-12-28T19:00:39.332Z,7.63
2022-12-28T19:03:27.966Z,7.61
2022-12-28T19:06:16.876Z,7.67
2022-12-28T19:09:12.197Z,7.57
2022-12-28T19:12:00.923Z,7.60
2022-12-28T19:14:52.348Z,7.52
2022-12-28T19:17:40.821Z,7.50
2022-12-28T19:20:31.693Z,7.49
2022-12-28T19:23:25.593Z,7.44
2022-12-28T19:26:16.890Z,7.37
2022-12-28T19:29:11.376Z,7.48
2022-12-28T19:32:00.122Z,7.39
2022-12-28T19:34:49.060Z,7.43
2022-12-28T19:37:41.271Z,7.33
2022-12-28T19:40:30.621Z,7.31
2022-12-28T19:43:20.047Z,7.29
2022-12-28T19:46:23.761Z,7.27
2022-12-28T19:49:18.162Z,7.19
2022-12-28T19:52:07.295Z,7.10
2022-12-28T19:54:59.812Z,7.16
2022-12-28T19:57:54.178Z,7.11
2022-12-28T20:00:57.287Z,7.28
2022-12-28T20:03:50.447Z,7.24
2022-12-28T20:06:59.625Z,7.27
2022-12-28T20:09:53.106Z,7.33
2022-12-28T20:12:42.022Z,7.35
2022-12-28T20:15:34.649Z,7.23
2022-12-28T20:18:33.613Z,7.25
2022-12-28T20:21:26.445Z,7.21
2022-12-28T20:24:20.104Z,7.08
2022-12-28T20:27:17.237Z,7.13
2022-12-28T20:30:14.439Z,7.13
2022-12-28T20:33:06.785Z,7.21
2022-12-28T20:36:10.043Z,7.24
2022-12-28T20:38:59.682Z,7.27
2022-12-28T20:42:07.679Z,7.06
2022-12-28T20:45:02.565Z,6.89
2022-12-28T20:47:53.274Z,6.99
2022-12-28T20:50:44.354Z,7.04
2022-12-28T20:53:42.008Z,7.03
2022-12-28T20:56:35.514Z,7.04
2022-12-28T20:59:27.134Z,7.09
2022-12-28T21:02:15.564Z,7.08
2022-12-28T21:05:04.319Z,7.15
2022-12-28T21:07:52.688Z,7.18
2022-12-28T21:10:41.178Z,7.17
2022-12-28T21:13:33.050Z,7.18
2022-12-28T21:16:21.765Z,7.20
2022-12-28T21:19:13.431Z,7.26
2022-12-28T21:22:05.484Z,7.30
2022-12-28T21:24:56.113Z,7.22
2022-12-28T21:27:48.060Z,7.11
2022-12-28T21:30:36.346Z,7.10
2022-12-28T21:33:25.386Z,7.13
2022-12-28T21:36:20.650Z,7.13
2022-12-28T21:39:08.981Z,7.11
2022-12-28T21:41:58.437Z,7.20
2022-12-28T21:44:46.585Z,7.17
2022-12-28T21:47:36.384Z,7.21
2022-12-28T21:50:28.919Z,7.16
2022-12-28T21:53:17.524Z,7.21
2022-12-28T21:56:14.038Z,7.25
2022-12-28T21:59:04.085Z,7.23
2022-12-28T22:02:12.236Z,7.27
2022-12-28T22:05:21.555Z,7.29
2022-12-28T22:08:31.040Z,7.25
2022-12-28T22:11:39.290Z,7.27
2022-12-28T22:14:27.412Z,7.27
2022-12-28T22:17:21.686Z,7.33
2022-12-28T22:20:13.488Z,7.33
2022-12-28T22:23:02.970Z,7.39
2022-12-28T22:25:51.773Z,7.49
2022-12-28T22:28:40.004Z,7.44
2022-12-28T22:31:28.136Z,7.44
2022-12-28T22:34:21.903Z,7.47
2022-12-28T22:37:10.363Z,7.39
2022-12-28T22:40:04.599Z,7.49
2022-12-28T22:42:53.339Z,7.43
2022-12-28T22:45:46.637Z,7.42
2022-12-28T22:48:35.859Z,7.49
2022-12-28T22:51:26.198Z,7.51
2022-12-28T22:54:14.879Z,7.46
2022-12-28T22:57:03.447Z,7.48
2022-12-28T22:59:52.004Z,7.51
2022-12-28T23:02:40.844Z,7.64
2022-12-28T23:05:31.923Z,7.75
2022-12-28T23:08:23.200Z,7.90
2022-12-28T23:11:48.478Z,8.05
2022-12-28T23:14:56.361Z,8.24
2022-12-28T23:17:46.027Z,8.40
2022-12-28T23:20:56.559Z,8.42
2022-12-28T23:24:12.931Z,8.54
2022-12-28T23:27:20.038Z,8.53
2022-12-28T23:30:34.979Z,8.64
2022-12-28T23:33:35.019Z,8.66
2022-12-28T23:36:31.471Z,8.71
2022-12-28T23:39:28.009Z,8.66
2022-12-28T23:42:22.813Z,8.69
2022-12-28T23:45:19.345Z,8.70
2022-12-28T23:48:15.775Z,8.80
2022-12-28T23:51:08.773Z,8.79
2022-12-28T23:54:01.868Z,8.77
2022-12-28T23:56:50.336Z,8.78
2022-12-28T23:59:39.064Z,8.69
